sensor_id;sensor_type;location;lat;lon;timestamp;temperature;humidity
15133;DHT22;7667;51.232;17.110;2023-12-28T00:00:38;-0.20;99.90
15133;DHT22;7667;51.232;17.110;2023-12-28T00:03:06;-0.20;99.90
15133;DHT22;7667;51.232;17.110;2023-12-28T00:05:33;-0.30;99.90
15133;DHT22;7667;51.232;17.110;2023-12-28T00:08:01;-0.30;99.90
15133;DHT22;7667;51.232;17.110;2023-12-28T00:10:29;-0.30;99.90
15133;DHT22;7667;51.232;17.110;2023-12-28T00:12:56;-0.10;99.90
15133;DHT22;7667;51.232;17.110;2023-12-28T00:15:24;-0.30;99.90
15133;DHT22;7667;51.232;17.110;2023-12-28T00:17:52;-0.20;99.90
15133;DHT22;7667;51.232;17.110;2023-12-28T00:20:20;-0.30;99.90
15133;DHT22;7667;51.232;17.110;2023-12-28T00:22:47;-0.30;99.90
15133;DHT22;7667;51.232;17.110;2023-12-28T00:25:15;-0.30;99.90
15133;DHT22;7667;51.232;17.110;2023-12-28T00:27:42;-0.30;99.90
15133;DHT22;7667;51.232;17.110;2023-12-28T00:30:10;-0.40;99.90
15133;DHT22;7667;51.232;17.110;2023-12-28T00:32:38;-0.30;99.90
15133;DHT22;7667;51.232;17.110;2023-12-28T00:35:06;-0.30;99.90
15133;DHT22;7667;51.232;17.110;2023-12-28T00:37:33;-0.30;99.90
15133;DHT22;7667;51.232;17.110;2023-12-28T00:40:01;-0.20;99.90
15133;DHT22;7667;51.232;17.110;2023-12-28T00:42:28;-0.20;99.90
15133;DHT22;7667;51.232;17.110;2023-12-28T00:44:56;-0.10;99.90
15133;DHT22;7667;51.232;17.110;2023-12-28T00:47:23;0.10;99.90
15133;DHT22;7667;51.232;17.110;2023-12-28T00:49:51;0.00;99.90
15133;DHT22;7667;51.232;17.110;2023-12-28T00:52:19;0.10;99.90
15133;DHT22;7667;51.232;17.110;2023-12-28T00:54:46;0.20;99.90
15133;DHT22;7667;51.232;17.110;2023-12-28T00:57:14;0.20;99.90
15133;DHT22;7667;51.232;17.110;2023-12-28T00:59:41;0.10;99.90
15133;DHT22;7667;51.232;17.110;2023-12-28T01:02:10;0.10;99.90
15133;DHT22;7667;51.232;17.110;2023-12-28T01:04:38;-0.10;99.90
15133;DHT22;7667;51.232;17.110;2023-12-28T01:07:05;-0.10;99.90
15133;DHT22;7667;51.232;17.110;2023-12-28T01:09:33;-0.10;99.90
15133;DHT22;7667;51.232;17.110;2023-12-28T01:12:01;0.00;99.90
15133;DHT22;7667;51.232;17.110;2023-12-28T01:14:28;-0.10;99.90
15133;DHT22;7667;51.232;17.110;2023-12-28T01:16:56;0.10;99.90
15133;DHT22;7667;51.232;17.110;2023-12-28T01:19:24;0.20;99.90
15133;DHT22;7667;51.232;17.110;2023-12-28T01:21:51;0.20;99.90
15133;DHT22;7667;51.232;17.110;2023-12-28T01:24:19;0.30;99.90
15133;DHT22;7667;51.232;17.110;2023-12-28T01:26:46;0.30;99.90
15133;DHT22;7667;51.232;17.110;2023-12-28T01:29:14;0.30;99.90
15133;DHT22;7667;51.232;17.110;2023-12-28T01:31:41;0.30;99.90
15133;DHT22;7667;51.232;17.110;2023-12-28T01:34:09;0.20;99.90
15133;DHT22;7667;51.232;17.110;2023-12-28T01:36:37;0.00;99.90
15133;DHT22;7667;51.232;17.110;2023-12-28T01:39:08;0.00;99.90
15133;DHT22;7667;51.232;17.110;2023-12-28T01:41:38;-0.10;99.90
15133;DHT22;7667;51.232;17.110;2023-12-28T01:44:06;-0.20;99.90
15133;DHT22;7667;51.232;17.110;2023-12-28T01:46:33;-0.30;99.90
15133;DHT22;7667;51.232;17.110;2023-12-28T01:49:01;-0.30;99.90
15133;DHT22;7667;51.232;17.110;2023-12-28T01:51:31;-0.30;99.90
15133;DHT22;7667;51.232;17.110;2023-12-28T01:53:59;-0.20;99.90
15133;DHT22;7667;51.232;17.110;2023-12-28T01:56:27;-0.30;99.90
15133;DHT22;7667;51.232;17.110;2023-12-28T01:58:55;-0.20;99.90
15133;DHT22;7667;51.232;17.110;2023-12-28T02:01:22;0.00;99.90
15133;DHT22;7667;51.232;17.110;2023-12-28T02:03:54;-0.10;99.90
15133;DHT22;7667;51.232;17.110;2023-12-28T02:06:23;0.00;99.90
15133;DHT22;7667;51.232;17.110;2023-12-28T02:08:51;-0.10;99.90
15133;DHT22;7667;51.232;17.110;2023-12-28T02:11:19;0.00;99.90
15133;DHT22;7667;51.232;17.110;2023-12-28T02:13:47;0.10;99.90
15133;DHT22;7667;51.232;17.110;2023-12-28T02:16:17;0.10;99.90
15133;DHT22;7667;51.232;17.110;2023-12-28T02:18:54;0.00;99.90
15133;DHT22;7667;51.232;17.110;2023-12-28T02:21:25;-0.20;99.90
15133;DHT22;7667;51.232;17.110;2023-12-28T02:23:53;-0.10;99.90
15133;DHT22;7667;51.232;17.110;2023-12-28T02:26:20;-0.30;99.90
15133;DHT22;7667;51.232;17.110;2023-12-28T02:28:48;-0.40;99.90
15133;DHT22;7667;51.232;17.110;2023-12-28T02:31:35;-0.20;99.90
15133;DHT22;7667;51.232;17.110;2023-12-28T02:34:12;-0.30;99.90
15133;DHT22;7667;51.232;17.110;2023-12-28T02:36:41;-0.50;99.90
15133;DHT22;7667;51.232;17.110;2023-12-28T02:39:14;-0.50;99.90
15133;DHT22;7667;51.232;17.110;2023-12-28T02:41:44;-0.50;99.90
15133;DHT22;7667;51.232;17.110;2023-12-28T02:44:13;-0.40;99.90
15133;DHT22;7667;51.232;17.110;2023-12-28T02:46:40;-0.30;99.90
15133;DHT22;7667;51.232;17.110;2023-12-28T02:49:08;-0.30;99.90
15133;DHT22;7667;51.232;17.110;2023-12-28T02:51:39;-0.20;99.90
15133;DHT22;7667;51.232;17.110;2023-12-28T02:54:06;-0.40;99.90
15133;DHT22;7667;51.232;17.110;2023-12-28T02:56:34;-0.50;99.90
15133;DHT22;7667;51.232;17.110;2023-12-28T02:59:01;-0.60;99.90
15133;DHT22;7667;51.232;17.110;2023-12-28T03:01:29;-0.70;99.90
15133;DHT22;7667;51.232;17.110;2023-12-28T03:03:57;-0.70;99.90
15133;DHT22;7667;51.232;17.110;2023-12-28T03:06:24;-0.70;99.90
15133;DHT22;7667;51.232;17.110;2023-12-28T03:08:52;-0.70;99.90
15133;DHT22;7667;51.232;17.110;2023-12-28T03:11:19;-0.60;99.90
15133;DHT22;7667;51.232;17.110;2023-12-28T03:13:47;-0.40;99.90
15133;DHT22;7667;51.232;17.110;2023-12-28T03:16:15;-0.30;99.90
15133;DHT22;7667;51.232;17.110;2023-12-28T03:18:43;-0.20;99.90
15133;DHT22;7667;51.232;17.110;2023-12-28T03:21:10;-0.30;99.90
15133;DHT22;7667;51.232;17.110;2023-12-28T03:23:38;-0.40;99.90
15133;DHT22;7667;51.232;17.110;2023-12-28T03:26:05;-0.40;99.90
15133;DHT22;7667;51.232;17.110;2023-12-28T03:28:33;-0.40;99.90
15133;DHT22;7667;51.232;17.110;2023-12-28T03:31:02;-0.40;99.90
15133;DHT22;7667;51.232;17.110;2023-12-28T03:33:30;-0.40;99.90
15133;DHT22;7667;51.232;17.110;2023-12-28T03:35:58;-0.40;99.90
15133;DHT22;7667;51.232;17.110;2023-12-28T03:38:27;-0.40;99.90
15133;DHT22;7667;51.232;17.110;2023-12-28T03:40:55;-0.50;99.90
15133;DHT22;7667;51.232;17.110;2023-12-28T03:43:22;-0.60;99.90
15133;DHT22;7667;51.232;17.110;2023-12-28T03:45:50;-0.60;99.90
15133;DHT22;7667;51.232;17.110;2023-12-28T03:48:17;-0.50;99.90
15133;DHT22;7667;51.232;17.110;2023-12-28T03:50:45;-0.50;99.90
15133;DHT22;7667;51.232;17.110;2023-12-28T03:53:13;-0.40;99.90
15133;DHT22;7667;51.232;17.110;2023-12-28T03:55:41;-0.40;99.90
15133;DHT22;7667;51.232;17.110;2023-12-28T03:58:08;-0.30;99.90
15133;DHT22;7667;51.232;17.110;2023-12-28T04:00:36;-0.30;99.90
15133;DHT22;7667;51.232;17.110;2023-12-28T04:03:04;-0.30;99.90
15133;DHT22;7667;51.232;17.110;2023-12-28T04:05:32;-0.20;99.90
15133;DHT22;7667;51.232;17.110;2023-12-28T04:07:59;-0.20;99.90
15133;DHT22;7667;51.232;17.110;2023-12-28T04:10:32;-0.30;99.90
15133;DHT22;7667;51.232;17.110;2023-12-28T04:13:00;-0.40;99.90
15133;DHT22;7667;51.232;17.110;2023-12-28T04:15:28;-0.40;99.90
15133;DHT22;7667;51.232;17.110;2023-12-28T04:17:56;-0.40;99.90
15133;DHT22;7667;51.232;17.110;2023-12-28T04:20:25;-0.30;99.90
15133;DHT22;7667;51.232;17.110;2023-12-28T04:22:52;-0.20;99.90
15133;DHT22;7667;51.232;17.110;2023-12-28T04:25:20;-0.20;99.90
15133;DHT22;7667;51.232;17.110;2023-12-28T04:27:47;-0.10;99.90
15133;DHT22;7667;51.232;17.110;2023-12-28T04:30:16;-0.20;99.90
15133;DHT22;7667;51.232;17.110;2023-12-28T04:32:44;-0.10;99.90
15133;DHT22;7667;51.232;17.110;2023-12-28T04:35:12;-0.10;99.90
15133;DHT22;7667;51.232;17.110;2023-12-28T04:37:39;-0.10;99.90
15133;DHT22;7667;51.232;17.110;2023-12-28T04:40:07;0.00;99.90
15133;DHT22;7667;51.232;17.110;2023-12-28T04:42:35;-0.10;99.90
15133;DHT22;7667;51.232;17.110;2023-12-28T04:45:03;-0.20;99.90
15133;DHT22;7667;51.232;17.110;2023-12-28T04:47:31;-0.20;99.90
15133;DHT22;7667;51.232;17.110;2023-12-28T04:49:59;-0.20;99.90
15133;DHT22;7667;51.232;17.110;2023-12-28T04:52:27;-0.30;99.90
15133;DHT22;7667;51.232;17.110;2023-12-28T04:54:54;-0.20;99.90
15133;DHT22;7667;51.232;17.110;2023-12-28T04:57:22;-0.10;99.90
15133;DHT22;7667;51.232;17.110;2023-12-28T04:59:55;-0.10;99.90
15133;DHT22;7667;51.232;17.110;2023-12-28T05:02:22;-0.10;99.90
15133;DHT22;7667;51.232;17.110;2023-12-28T05:04:50;0.00;99.90
15133;DHT22;7667;51.232;17.110;2023-12-28T05:07:18;-0.20;99.90
15133;DHT22;7667;51.232;17.110;2023-12-28T05:09:45;-0.40;99.90
15133;DHT22;7667;51.232;17.110;2023-12-28T05:12:13;-0.60;99.90
15133;DHT22;7667;51.232;17.110;2023-12-28T05:14:40;-0.70;99.90
15133;DHT22;7667;51.232;17.110;2023-12-28T05:17:08;-0.50;99.90
15133;DHT22;7667;51.232;17.110;2023-12-28T05:19:36;-0.30;99.90
15133;DHT22;7667;51.232;17.110;2023-12-28T05:22:03;-0.20;99.90
15133;DHT22;7667;51.232;17.110;2023-12-28T05:24:33;-0.30;99.90
15133;DHT22;7667;51.232;17.110;2023-12-28T05:27:01;-0.20;99.90
15133;DHT22;7667;51.232;17.110;2023-12-28T05:29:29;-0.10;99.90
15133;DHT22;7667;51.232;17.110;2023-12-28T05:31:56;-0.10;99.90
15133;DHT22;7667;51.232;17.110;2023-12-28T05:34:24;-0.20;99.90
15133;DHT22;7667;51.232;17.110;2023-12-28T05:36:52;-0.20;99.90
15133;DHT22;7667;51.232;17.110;2023-12-28T05:39:19;-0.30;99.90
15133;DHT22;7667;51.232;17.110;2023-12-28T05:41:47;-0.40;99.90
15133;DHT22;7667;51.232;17.110;2023-12-28T05:44:14;-0.50;99.90
15133;DHT22;7667;51.232;17.110;2023-12-28T05:46:42;-0.70;99.90
15133;DHT22;7667;51.232;17.110;2023-12-28T05:49:09;-0.70;99.90
15133;DHT22;7667;51.232;17.110;2023-12-28T05:51:40;-0.30;99.90
15133;DHT22;7667;51.232;17.110;2023-12-28T05:54:08;0.00;99.90
15133;DHT22;7667;51.232;17.110;2023-12-28T05:56:36;0.40;99.90
15133;DHT22;7667;51.232;17.110;2023-12-28T05:59:04;0.60;99.90
15133;DHT22;7667;51.232;17.110;2023-12-28T06:01:31;0.70;99.90
15133;DHT22;7667;51.232;17.110;2023-12-28T06:03:59;0.60;99.90
15133;DHT22;7667;51.232;17.110;2023-12-28T06:06:26;0.60;99.90
15133;DHT22;7667;51.232;17.110;2023-12-28T06:08:54;0.50;99.90
15133;DHT22;7667;51.232;17.110;2023-12-28T06:11:22;0.50;99.90
15133;DHT22;7667;51.232;17.110;2023-12-28T06:13:49;0.30;99.90
15133;DHT22;7667;51.232;17.110;2023-12-28T06:16:17;0.30;99.90
15133;DHT22;7667;51.232;17.110;2023-12-28T06:18:44;0.20;99.90
15133;DHT22;7667;51.232;17.110;2023-12-28T06:21:12;0.20;99.90
15133;DHT22;7667;51.232;17.110;2023-12-28T06:23:40;0.30;99.90
15133;DHT22;7667;51.232;17.110;2023-12-28T06:26:08;0.70;99.90
15133;DHT22;7667;51.232;17.110;2023-12-28T06:28:35;1.10;99.90
15133;DHT22;7667;51.232;17.110;2023-12-28T06:31:03;1.90;99.90
15133;DHT22;7667;51.232;17.110;2023-12-28T06:33:32;2.30;99.90
15133;DHT22;7667;51.232;17.110;2023-12-28T06:36:05;2.50;99.90
15133;DHT22;7667;51.232;17.110;2023-12-28T06:38:33;2.80;99.90
15133;DHT22;7667;51.232;17.110;2023-12-28T06:41:01;3.20;99.90
15133;DHT22;7667;51.232;17.110;2023-12-28T06:43:28;3.60;99.90
15133;DHT22;7667;51.232;17.110;2023-12-28T06:45:56;3.60;99.90
15133;DHT22;7667;51.232;17.110;2023-12-28T06:48:23;3.70;99.90
15133;DHT22;7667;51.232;17.110;2023-12-28T06:50:52;3.70;99.90
15133;DHT22;7667;51.232;17.110;2023-12-28T06:53:20;3.80;99.90
15133;DHT22;7667;51.232;17.110;2023-12-28T06:55:47;4.00;99.90
15133;DHT22;7667;51.232;17.110;2023-12-28T06:58:15;4.10;99.90
15133;DHT22;7667;51.232;17.110;2023-12-28T07:00:44;4.00;99.90
15133;DHT22;7667;51.232;17.110;2023-12-28T07:03:12;3.90;99.90
15133;DHT22;7667;51.232;17.110;2023-12-28T07:05:39;3.90;99.90
15133;DHT22;7667;51.232;17.110;2023-12-28T07:08:07;4.00;99.90
15133;DHT22;7667;51.232;17.110;2023-12-28T07:10:35;4.00;99.90
15133;DHT22;7667;51.232;17.110;2023-12-28T07:13:03;4.10;99.90
15133;DHT22;7667;51.232;17.110;2023-12-28T07:15:30;4.30;99.90
15133;DHT22;7667;51.232;17.110;2023-12-28T07:17:58;4.50;99.90
15133;DHT22;7667;51.232;17.110;2023-12-28T07:20:26;5.00;99.90
15133;DHT22;7667;51.232;17.110;2023-12-28T07:22:53;5.30;99.90
15133;DHT22;7667;51.232;17.110;2023-12-28T07:25:21;5.70;99.90
15133;DHT22;7667;51.232;17.110;2023-12-28T07:27:49;6.10;99.90
15133;DHT22;7667;51.232;17.110;2023-12-28T07:30:16;6.50;99.90
15133;DHT22;7667;51.232;17.110;2023-12-28T07:32:44;6.50;99.90
15133;DHT22;7667;51.232;17.110;2023-12-28T07:35:13;6.60;99.90
15133;DHT22;7667;51.232;17.110;2023-12-28T07:37:40;6.70;99.90
15133;DHT22;7667;51.232;17.110;2023-12-28T07:40:08;6.80;99.90
15133;DHT22;7667;51.232;17.110;2023-12-28T07:42:36;6.90;99.90
15133;DHT22;7667;51.232;17.110;2023-12-28T07:45:04;6.90;99.90
15133;DHT22;7667;51.232;17.110;2023-12-28T07:47:32;6.90;99.90
15133;DHT22;7667;51.232;17.110;2023-12-28T07:50:00;6.90;99.90
15133;DHT22;7667;51.232;17.110;2023-12-28T07:52:29;7.00;99.90
15133;DHT22;7667;51.232;17.110;2023-12-28T07:54:57;7.00;99.90
15133;DHT22;7667;51.232;17.110;2023-12-28T07:57:25;6.90;99.90
15133;DHT22;7667;51.232;17.110;2023-12-28T07:59:53;7.00;99.90
15133;DHT22;7667;51.232;17.110;2023-12-28T08:02:20;7.10;99.90
15133;DHT22;7667;51.232;17.110;2023-12-28T08:04:48;6.90;99.90
15133;DHT22;7667;51.232;17.110;2023-12-28T08:07:16;6.70;99.90
15133;DHT22;7667;51.232;17.110;2023-12-28T08:09:44;6.60;99.90
15133;DHT22;7667;51.232;17.110;2023-12-28T08:12:11;6.50;99.90
15133;DHT22;7667;51.232;17.110;2023-12-28T08:14:39;6.50;99.90
15133;DHT22;7667;51.232;17.110;2023-12-28T08:17:06;6.50;99.90
15133;DHT22;7667;51.232;17.110;2023-12-28T08:19:34;6.60;99.90
15133;DHT22;7667;51.232;17.110;2023-12-28T08:22:02;6.60;99.90
15133;DHT22;7667;51.232;17.110;2023-12-28T08:24:30;6.70;99.90
15133;DHT22;7667;51.232;17.110;2023-12-28T08:26:59;6.70;99.90
15133;DHT22;7667;51.232;17.110;2023-12-28T08:29:27;6.80;99.90
15133;DHT22;7667;51.232;17.110;2023-12-28T08:31:54;6.90;99.90
15133;DHT22;7667;51.232;17.110;2023-12-28T08:34:23;7.00;99.90
15133;DHT22;7667;51.232;17.110;2023-12-28T08:36:50;7.10;99.90
15133;DHT22;7667;51.232;17.110;2023-12-28T08:39:19;7.20;99.90
15133;DHT22;7667;51.232;17.110;2023-12-28T08:41:47;7.30;99.90
15133;DHT22;7667;51.232;17.110;2023-12-28T08:44:14;7.40;99.90
15133;DHT22;7667;51.232;17.110;2023-12-28T08:46:42;7.50;99.90
15133;DHT22;7667;51.232;17.110;2023-12-28T08:49:09;7.50;99.90
15133;DHT22;7667;51.232;17.110;2023-12-28T08:51:37;7.50;99.90
15133;DHT22;7667;51.232;17.110;2023-12-28T08:54:08;7.50;99.90
15133;DHT22;7667;51.232;17.110;2023-12-28T08:56:36;7.60;99.90
15133;DHT22;7667;51.232;17.110;2023-12-28T08:59:04;7.60;99.90
15133;DHT22;7667;51.232;17.110;2023-12-28T09:01:32;7.70;99.90
15133;DHT22;7667;51.232;17.110;2023-12-28T09:03:59;7.80;99.90
15133;DHT22;7667;51.232;17.110;2023-12-28T09:06:28;7.80;99.90
15133;DHT22;7667;51.232;17.110;2023-12-28T09:08:56;7.90;99.90
15133;DHT22;7667;51.232;17.110;2023-12-28T09:11:24;8.00;99.90
15133;DHT22;7667;51.232;17.110;2023-12-28T09:13:51;8.00;99.90
15133;DHT22;7667;51.232;17.110;2023-12-28T09:16:19;7.90;99.90
15133;DHT22;7667;51.232;17.110;2023-12-28T09:18:46;7.70;99.90
15133;DHT22;7667;51.232;17.110;2023-12-28T09:21:14;7.60;99.90
15133;DHT22;7667;51.232;17.110;2023-12-28T09:23:42;7.40;99.90
15133;DHT22;7667;51.232;17.110;2023-12-28T09:26:10;7.40;99.90
15133;DHT22;7667;51.232;17.110;2023-12-28T09:28:37;7.40;99.90
15133;DHT22;7667;51.232;17.110;2023-12-28T09:31:05;7.50;99.90
15133;DHT22;7667;51.232;17.110;2023-12-28T09:33:34;7.60;99.90
15133;DHT22;7667;51.232;17.110;2023-12-28T09:36:03;7.70;99.90
15133;DHT22;7667;51.232;17.110;2023-12-28T09:38:31;7.70;99.90
15133;DHT22;7667;51.232;17.110;2023-12-28T09:41:11;7.70;99.90
15133;DHT22;7667;51.232;17.110;2023-12-28T09:43:58;7.60;99.90
15133;DHT22;7667;51.232;17.110;2023-12-28T09:46:33;7.70;99.90
15133;DHT22;7667;51.232;17.110;2023-12-28T09:49:02;7.80;99.90
15133;DHT22;7667;51.232;17.110;2023-12-28T09:51:30;7.90;99.90
15133;DHT22;7667;51.232;17.110;2023-12-28T09:53:58;7.90;99.90
15133;DHT22;7667;51.232;17.110;2023-12-28T09:56:26;8.00;99.90
15133;DHT22;7667;51.232;17.110;2023-12-28T09:58:57;8.10;99.90
15133;DHT22;7667;51.232;17.110;2023-12-28T10:01:25;8.10;99.90
15133;DHT22;7667;51.232;17.110;2023-12-28T10:03:53;8.10;99.90
15133;DHT22;7667;51.232;17.110;2023-12-28T10:06:20;8.20;99.90
15133;DHT22;7667;51.232;17.110;2023-12-28T10:08:49;8.30;99.90
15133;DHT22;7667;51.232;17.110;2023-12-28T10:11:19;8.30;99.90
15133;DHT22;7667;51.232;17.110;2023-12-28T10:13:47;8.30;99.90
15133;DHT22;7667;51.232;17.110;2023-12-28T10:16:16;8.30;99.90
15133;DHT22;7667;51.232;17.110;2023-12-28T10:18:43;8.40;99.90
15133;DHT22;7667;51.232;17.110;2023-12-28T10:21:12;8.40;99.90
15133;DHT22;7667;51.232;17.110;2023-12-28T10:23:40;8.40;99.90
15133;DHT22;7667;51.232;17.110;2023-12-28T10:26:08;8.40;99.90
15133;DHT22;7667;51.232;17.110;2023-12-28T10:28:36;8.30;99.90
15133;DHT22;7667;51.232;17.110;2023-12-28T10:31:07;8.30;99.90
15133;DHT22;7667;51.232;17.110;2023-12-28T10:33:37;8.30;99.90
15133;DHT22;7667;51.232;17.110;2023-12-28T10:36:07;8.40;99.90
15133;DHT22;7667;51.232;17.110;2023-12-28T10:38:37;8.40;99.90
15133;DHT22;7667;51.232;17.110;2023-12-28T10:41:07;8.40;99.90
15133;DHT22;7667;51.232;17.110;2023-12-28T10:43:46;8.40;99.90
15133;DHT22;7667;51.232;17.110;2023-12-28T10:46:31;8.30;99.90
15133;DHT22;7667;51.232;17.110;2023-12-28T10:49:05;8.40;99.90
15133;DHT22;7667;51.232;17.110;2023-12-28T10:51:36;8.40;99.90
15133;DHT22;7667;51.232;17.110;2023-12-28T10:56:45;8.40;99.90
15133;DHT22;7667;51.232;17.110;2023-12-28T10:59:30;8.40;99.90
15133;DHT22;7667;51.232;17.110;2023-12-28T11:02:18;8.50;99.90
15133;DHT22;7667;51.232;17.110;2023-12-28T11:04:50;8.50;99.90
15133;DHT22;7667;51.232;17.110;2023-12-28T11:07:18;8.50;99.90
15133;DHT22;7667;51.232;17.110;2023-12-28T11:09:47;8.50;99.90
15133;DHT22;7667;51.232;17.110;2023-12-28T11:12:16;8.50;99.90
15133;DHT22;7667;51.232;17.110;2023-12-28T11:14:47;8.60;99.90
15133;DHT22;7667;51.232;17.110;2023-12-28T11:17:19;8.60;99.90
15133;DHT22;7667;51.232;17.110;2023-12-28T11:19:48;8.60;99.90
15133;DHT22;7667;51.232;17.110;2023-12-28T11:22:17;8.60;99.90
15133;DHT22;7667;51.232;17.110;2023-12-28T11:24:44;8.70;99.90
15133;DHT22;7667;51.232;17.110;2023-12-28T11:27:12;8.70;99.90
15133;DHT22;7667;51.232;17.110;2023-12-28T11:29:41;8.70;99.90
15133;DHT22;7667;51.232;17.110;2023-12-28T11:32:09;8.70;99.90
15133;DHT22;7667;51.232;17.110;2023-12-28T11:34:37;8.70;99.90
15133;DHT22;7667;51.232;17.110;2023-12-28T11:37:12;8.70;99.90
15133;DHT22;7667;51.232;17.110;2023-12-28T11:39:48;8.70;99.90
15133;DHT22;7667;51.232;17.110;2023-12-28T11:42:20;8.70;99.90
15133;DHT22;7667;51.232;17.110;2023-12-28T11:44:54;8.70;99.90
15133;DHT22;7667;51.232;17.110;2023-12-28T11:47:24;8.60;99.90
15133;DHT22;7667;51.232;17.110;2023-12-28T11:49:52;8.60;99.90
15133;DHT22;7667;51.232;17.110;2023-12-28T11:52:31;8.60;99.90
15133;DHT22;7667;51.232;17.110;2023-12-28T11:54:59;8.60;99.90
15133;DHT22;7667;51.232;17.110;2023-12-28T11:57:28;8.50;99.90
15133;DHT22;7667;51.232;17.110;2023-12-28T12:00:00;8.60;99.90
15133;DHT22;7667;51.232;17.110;2023-12-28T12:02:28;8.60;99.90
15133;DHT22;7667;51.232;17.110;2023-12-28T12:04:56;8.60;99.90
15133;DHT22;7667;51.232;17.110;2023-12-28T12:07:29;8.60;99.90
15133;DHT22;7667;51.232;17.110;2023-12-28T12:09:58;8.50;99.90
15133;DHT22;7667;51.232;17.110;2023-12-28T12:12:26;8.60;99.90
15133;DHT22;7667;51.232;17.110;2023-12-28T12:14:54;8.60;99.90
15133;DHT22;7667;51.232;17.110;2023-12-28T12:17:24;8.50;99.90
15133;DHT22;7667;51.232;17.110;2023-12-28T12:19:52;8.50;99.90
15133;DHT22;7667;51.232;17.110;2023-12-28T12:22:23;8.50;99.90
15133;DHT22;7667;51.232;17.110;2023-12-28T12:24:56;8.50;99.90
15133;DHT22;7667;51.232;17.110;2023-12-28T12:27:25;8.50;99.90
15133;DHT22;7667;51.232;17.110;2023-12-28T12:29:53;8.40;99.90
15133;DHT22;7667;51.232;17.110;2023-12-28T12:32:21;8.40;99.90
15133;DHT22;7667;51.232;17.110;2023-12-28T12:34:50;8.40;99.90
15133;DHT22;7667;51.232;17.110;2023-12-28T12:37:18;8.30;99.90
15133;DHT22;7667;51.232;17.110;2023-12-28T12:39:46;8.30;99.90
15133;DHT22;7667;51.232;17.110;2023-12-28T12:42:14;8.30;99.90
15133;DHT22;7667;51.232;17.110;2023-12-28T12:44:41;8.20;99.90
15133;DHT22;7667;51.232;17.110;2023-12-28T12:47:09;8.20;99.90
15133;DHT22;7667;51.232;17.110;2023-12-28T12:49:37;8.20;99.90
15133;DHT22;7667;51.232;17.110;2023-12-28T12:52:07;8.10;99.90
15133;DHT22;7667;51.232;17.110;2023-12-28T12:54:35;8.00;99.90
15133;DHT22;7667;51.232;17.110;2023-12-28T12:57:03;7.90;99.90
15133;DHT22;7667;51.232;17.110;2023-12-28T12:59:31;7.90;99.90
15133;DHT22;7667;51.232;17.110;2023-12-28T13:01:59;7.90;99.90
15133;DHT22;7667;51.232;17.110;2023-12-28T13:04:27;7.90;99.90
15133;DHT22;7667;51.232;17.110;2023-12-28T13:06:55;8.00;99.90
15133;DHT22;7667;51.232;17.110;2023-12-28T13:09:23;8.00;99.90
15133;DHT22;7667;51.232;17.110;2023-12-28T13:11:50;8.10;99.90
15133;DHT22;7667;51.232;17.110;2023-12-28T13:14:19;8.10;99.90
15133;DHT22;7667;51.232;17.110;2023-12-28T13:16:47;8.00;99.90
15133;DHT22;7667;51.232;17.110;2023-12-28T13:19:23;8.10;99.90
15133;DHT22;7667;51.232;17.110;2023-12-28T13:21:51;8.10;99.90
15133;DHT22;7667;51.232;17.110;2023-12-28T13:24:19;8.00;99.90
15133;DHT22;7667;51.232;17.110;2023-12-28T13:26:46;7.90;99.90
15133;DHT22;7667;51.232;17.110;2023-12-28T13:29:14;7.90;99.90
15133;DHT22;7667;51.232;17.110;2023-12-28T13:31:42;7.90;99.90
15133;DHT22;7667;51.232;17.110;2023-12-28T13:34:12;7.90;99.90
15133;DHT22;7667;51.232;17.110;2023-12-28T13:36:39;7.90;99.90
15133;DHT22;7667;51.232;17.110;2023-12-28T13:39:07;7.80;99.90
15133;DHT22;7667;51.232;17.110;2023-12-28T13:41:38;7.80;99.90
15133;DHT22;7667;51.232;17.110;2023-12-28T13:44:06;7.80;99.90
15133;DHT22;7667;51.232;17.110;2023-12-28T13:46:38;7.70;99.90
15133;DHT22;7667;51.232;17.110;2023-12-28T13:49:06;7.70;99.90
15133;DHT22;7667;51.232;17.110;2023-12-28T13:51:35;7.50;99.90
15133;DHT22;7667;51.232;17.110;2023-12-28T13:54:02;7.40;99.90
15133;DHT22;7667;51.232;17.110;2023-12-28T13:56:32;7.40;99.90
15133;DHT22;7667;51.232;17.110;2023-12-28T13:59:00;7.40;99.90
15133;DHT22;7667;51.232;17.110;2023-12-28T14:01:27;7.40;99.90
15133;DHT22;7667;51.232;17.110;2023-12-28T14:03:55;7.30;99.90
15133;DHT22;7667;51.232;17.110;2023-12-28T14:06:23;7.30;99.90
15133;DHT22;7667;51.232;17.110;2023-12-28T14:08:51;7.20;99.90
15133;DHT22;7667;51.232;17.110;2023-12-28T14:11:18;7.20;99.90
15133;DHT22;7667;51.232;17.110;2023-12-28T14:13:46;7.10;99.90
15133;DHT22;7667;51.232;17.110;2023-12-28T14:16:13;7.10;99.90
15133;DHT22;7667;51.232;17.110;2023-12-28T14:18:41;7.10;99.90
15133;DHT22;7667;51.232;17.110;2023-12-28T14:21:10;7.00;99.90
15133;DHT22;7667;51.232;17.110;2023-12-28T14:23:40;7.00;99.90
15133;DHT22;7667;51.232;17.110;2023-12-28T14:26:12;7.00;99.90
15133;DHT22;7667;51.232;17.110;2023-12-28T14:28:42;7.00;99.90
15133;DHT22;7667;51.232;17.110;2023-12-28T14:31:11;6.90;99.90
15133;DHT22;7667;51.232;17.110;2023-12-28T14:33:39;6.90;99.90
15133;DHT22;7667;51.232;17.110;2023-12-28T14:36:35;6.70;99.90
15133;DHT22;7667;51.232;17.110;2023-12-28T14:39:07;6.60;99.90
15133;DHT22;7667;51.232;17.110;2023-12-28T14:41:36;6.50;99.90
15133;DHT22;7667;51.232;17.110;2023-12-28T14:44:09;6.50;99.90
15133;DHT22;7667;51.232;17.110;2023-12-28T14:46:37;6.30;99.90
15133;DHT22;7667;51.232;17.110;2023-12-28T14:49:04;6.30;99.90
15133;DHT22;7667;51.232;17.110;2023-12-28T14:51:32;6.10;99.90
15133;DHT22;7667;51.232;17.110;2023-12-28T14:54:00;6.00;99.90
15133;DHT22;7667;51.232;17.110;2023-12-28T14:56:27;5.80;99.90
15133;DHT22;7667;51.232;17.110;2023-12-28T14:59:10;5.60;99.90
15133;DHT22;7667;51.232;17.110;2023-12-28T15:01:38;5.50;99.90
15133;DHT22;7667;51.232;17.110;2023-12-28T15:04:06;5.50;99.90
15133;DHT22;7667;51.232;17.110;2023-12-28T15:06:33;5.60;99.90
15133;DHT22;7667;51.232;17.110;2023-12-28T15:09:01;5.60;99.90
15133;DHT22;7667;51.232;17.110;2023-12-28T15:11:29;5.60;99.90
15133;DHT22;7667;51.232;17.110;2023-12-28T15:14:14;5.60;99.90
15133;DHT22;7667;51.232;17.110;2023-12-28T15:16:42;5.50;99.90
15133;DHT22;7667;51.232;17.110;2023-12-28T15:19:11;5.30;99.90
15133;DHT22;7667;51.232;17.110;2023-12-28T15:21:39;5.10;99.90
15133;DHT22;7667;51.232;17.110;2023-12-28T15:24:07;4.90;99.90
15133;DHT22;7667;51.232;17.110;2023-12-28T15:26:35;4.80;99.90
15133;DHT22;7667;51.232;17.110;2023-12-28T15:29:03;4.80;99.90
15133;DHT22;7667;51.232;17.110;2023-12-28T15:31:31;4.80;99.90
15133;DHT22;7667;51.232;17.110;2023-12-28T15:33:59;4.90;99.90
15133;DHT22;7667;51.232;17.110;2023-12-28T15:36:26;5.20;99.90
15133;DHT22;7667;51.232;17.110;2023-12-28T15:38:54;5.20;99.90
15133;DHT22;7667;51.232;17.110;2023-12-28T15:41:21;5.20;99.90
15133;DHT22;7667;51.232;17.110;2023-12-28T15:43:49;5.20;99.90
15133;DHT22;7667;51.232;17.110;2023-12-28T15:46:16;5.10;99.90
15133;DHT22;7667;51.232;17.110;2023-12-28T15:48:44;5.00;99.90
15133;DHT22;7667;51.232;17.110;2023-12-28T15:51:12;4.70;99.90
15133;DHT22;7667;51.232;17.110;2023-12-28T15:53:40;4.70;99.90